createdAt,value
2022-10-20T00:00:09.847Z,7.4
2022-10-20T00:01:16.381Z,7.3
2022-10-20T00:02:22.965Z,7.3
2022-10-20T00:03:29.460Z,7.3
2022-10-20T00:04:36.000Z,7.2
2022-10-20T00:05:42.547Z,7.1
2022-10-20T00:06:49.079Z,7.2
2022-10-20T00:07:55.624Z,7.2
2022-10-20T00:09:02.164Z,7.2
2022-10-20T00:10:08.707Z,7.2
2022-10-20T00:11:15.238Z,7.2
2022-10-20T00:12:22.019Z,7.2
2022-10-20T00:13:28.800Z,7.1
2022-10-20T00:14:35.582Z,7.1
2022-10-20T00:15:42.361Z,7.2
2022-10-20T00:16:49.126Z,7.2
2022-10-20T00:17:55.951Z,7.2
2022-10-20T00:19:02.680Z,7.2
2022-10-20T00:20:09.478Z,7.2
2022-10-20T00:21:16.236Z,7.2
2022-10-20T00:22:23.039Z,7.2
2022-10-20T00:23:29.791Z,7.2
2022-10-20T00:24:36.574Z,7.2
2022-10-20T00:25:43.342Z,7.3
2022-10-20T00:29:01.543Z,7.2
2022-10-20T00:30:39.551Z,7.2
2022-10-20T00:31:46.098Z,7.2
2022-10-20T00:32:52.622Z,7.3
2022-10-20T00:33:59.184Z,7.2
2022-10-20T00:35:05.702Z,7.2
2022-10-20T00:36:12.240Z,7.2
2022-10-20T00:37:18.780Z,7.2
2022-10-20T00:38:25.326Z,7.1
2022-10-20T00:39:31.876Z,7.1
2022-10-20T00:40:38.401Z,7
2022-10-20T00:41:44.939Z,7
2022-10-20T00:42:51.470Z,7
2022-10-20T00:43:58.039Z,7
2022-10-20T00:45:04.538Z,7
2022-10-20T00:46:11.083Z,7
2022-10-20T00:47:17.651Z,7
2022-10-20T00:48:24.198Z,7
2022-10-20T00:49:30.688Z,7
2022-10-20T00:50:37.226Z,7
2022-10-20T00:51:43.756Z,7
2022-10-20T00:52:50.331Z,7.1
2022-10-20T00:53:56.830Z,7
2022-10-20T00:55:03.359Z,7
2022-10-20T00:56:09.900Z,7.1
2022-10-20T00:57:16.438Z,7
2022-10-20T00:58:23.220Z,7.1
2022-10-20T00:59:29.994Z,7.2
2022-10-20T01:00:36.779Z,7.2
2022-10-20T01:01:43.551Z,7.3
2022-10-20T01:02:50.333Z,7.2
2022-10-20T01:03:57.098Z,7.2
2022-10-20T01:05:03.888Z,7.2
2022-10-20T01:06:10.658Z,7.2
2022-10-20T01:07:17.432Z,7.1
2022-10-20T01:08:24.205Z,7.2
2022-10-20T01:09:30.984Z,7.1
2022-10-20T01:10:37.766Z,7.1
2022-10-20T01:11:44.548Z,7.1
2022-10-20T01:15:02.771Z,7.1
2022-10-20T01:16:41.496Z,7
2022-10-20T01:17:47.447Z,7
2022-10-20T01:18:53.875Z,7
2022-10-20T01:20:00.285Z,7
2022-10-20T01:21:06.697Z,7
2022-10-20T01:22:13.118Z,7.1
2022-10-20T01:23:19.541Z,7.2
2022-10-20T01:24:25.961Z,7.2
2022-10-20T01:25:32.379Z,7.3
2022-10-20T01:26:38.813Z,7.3
2022-10-20T01:28:51.648Z,7.3
2022-10-20T01:29:58.078Z,7.3
2022-10-20T01:31:04.491Z,7.3
2022-10-20T01:32:10.937Z,7.3
2022-10-20T01:33:17.333Z,7.3
2022-10-20T01:34:23.811Z,7.3
2022-10-20T01:35:30.181Z,7.2
2022-10-20T01:36:36.590Z,7.2
2022-10-20T01:37:43.012Z,7.2
2022-10-20T01:38:49.451Z,7.2
2022-10-20T01:39:55.855Z,7.2
2022-10-20T01:41:02.275Z,7.2
2022-10-20T01:42:08.702Z,7.2
2022-10-20T01:43:15.135Z,7.1
2022-10-20T01:44:21.560Z,7.1
2022-10-20T01:45:28.100Z,7.2
2022-10-20T01:46:34.642Z,7.1
2022-10-20T01:47:41.253Z,7.1
2022-10-20T01:48:47.725Z,7.1
2022-10-20T01:49:54.267Z,7.1
2022-10-20T01:51:00.806Z,7.1
2022-10-20T01:52:07.346Z,7.1
2022-10-20T01:53:13.887Z,7.1
2022-10-20T01:54:20.437Z,7.1
2022-10-20T01:55:26.987Z,7.1
2022-10-20T01:56:33.523Z,7.1
2022-10-20T01:57:40.062Z,7.1
2022-10-20T01:58:46.597Z,7.2
2022-10-20T02:00:20.308Z,7.3
2022-10-20T02:01:27.041Z,7.2
2022-10-20T02:02:33.819Z,7.2
2022-10-20T02:03:40.588Z,7.2
2022-10-20T02:04:47.365Z,7.1
2022-10-20T02:05:54.138Z,7.1
2022-10-20T02:07:00.935Z,7.1
2022-10-20T02:08:07.701Z,7.1
2022-10-20T02:09:14.476Z,7.1
2022-10-20T02:10:21.273Z,7.1
2022-10-20T02:11:28.038Z,7.1
2022-10-20T02:12:34.816Z,7.1
2022-10-20T02:13:41.586Z,7.1
2022-10-20T02:16:59.800Z,7.1
2022-10-20T02:18:37.797Z,7.1
2022-10-20T02:19:44.341Z,7.1
2022-10-20T02:20:50.879Z,7
2022-10-20T02:21:57.412Z,7.1
2022-10-20T02:23:03.949Z,7.1
2022-10-20T02:24:10.501Z,7
2022-10-20T02:25:17.046Z,7.1
2022-10-20T02:26:23.575Z,7.1
2022-10-20T02:27:30.110Z,7
2022-10-20T02:28:36.673Z,7
2022-10-20T02:29:43.208Z,7
2022-10-20T02:30:49.797Z,7
2022-10-20T02:31:56.258Z,7
2022-10-20T02:33:02.792Z,7
2022-10-20T02:34:09.326Z,7
2022-10-20T02:35:15.863Z,7
2022-10-20T02:37:28.934Z,7
2022-10-20T02:38:35.462Z,7
2022-10-20T02:39:42.043Z,7
2022-10-20T02:40:48.532Z,7
2022-10-20T02:41:55.075Z,7.1
2022-10-20T02:43:01.611Z,7.1
2022-10-20T02:44:08.153Z,7.1
2022-10-20T02:45:14.701Z,7.1
2022-10-20T02:46:21.478Z,7.1
2022-10-20T02:47:28.258Z,7.1
2022-10-20T02:48:35.044Z,7.1
2022-10-20T02:49:41.811Z,7.1
2022-10-20T02:50:48.598Z,7.1
2022-10-20T02:51:55.369Z,7.1
2022-10-20T02:53:02.145Z,7.1
2022-10-20T02:54:08.929Z,7.1
2022-10-20T02:55:15.715Z,7.1
2022-10-20T02:56:22.493Z,7.1
2022-10-20T02:57:29.263Z,7.1
2022-10-20T02:58:36.045Z,7.1
2022-10-20T02:59:42.812Z,7.2
2022-10-20T03:03:01.000Z,7.2
2022-10-20T03:04:38.899Z,7.2
2022-10-20T03:05:45.318Z,7.2
2022-10-20T03:06:51.736Z,7.1
2022-10-20T03:07:58.167Z,7.1
2022-10-20T03:09:04.575Z,7
2022-10-20T03:10:10.995Z,6.9
2022-10-20T03:11:17.419Z,6.9
2022-10-20T03:12:23.838Z,6.9
2022-10-20T03:13:30.263Z,7
2022-10-20T03:14:36.675Z,6.9
2022-10-20T03:15:43.094Z,6.9
2022-10-20T03:16:49.504Z,6.9
2022-10-20T03:17:55.932Z,7
2022-10-20T03:19:02.348Z,7
2022-10-20T03:20:08.763Z,7
2022-10-20T03:21:15.183Z,7.1
2022-10-20T03:22:21.600Z,7
2022-10-20T03:23:28.019Z,7
2022-10-20T03:24:34.443Z,7.1
2022-10-20T03:25:40.866Z,7.1
2022-10-20T03:26:47.295Z,7.1
2022-10-20T03:27:53.712Z,7.1
2022-10-20T03:29:00.141Z,7.1
2022-10-20T03:30:06.557Z,7.1
2022-10-20T03:32:19.527Z,7.1
2022-10-20T03:33:26.072Z,7.1
2022-10-20T03:34:32.660Z,7.1
2022-10-20T03:35:39.149Z,7.1
2022-10-20T03:36:45.701Z,7.1
2022-10-20T03:37:52.245Z,7.1
2022-10-20T03:38:58.782Z,7.1
2022-10-20T03:40:05.321Z,7.1
2022-10-20T03:41:11.863Z,7.1
2022-10-20T03:42:18.401Z,7
2022-10-20T03:43:24.932Z,7.1
2022-10-20T03:44:31.478Z,7
2022-10-20T03:45:38.038Z,7
2022-10-20T03:47:11.238Z,7
2022-10-20T03:48:18.010Z,6.9
2022-10-20T03:49:24.784Z,6.8
2022-10-20T03:50:31.555Z,6.9
2022-10-20T03:51:38.363Z,6.9
2022-10-20T03:52:45.115Z,6.9
2022-10-20T03:53:51.883Z,6.9
2022-10-20T03:54:58.662Z,7
2022-10-20T03:56:05.435Z,7
2022-10-20T03:57:12.205Z,7
2022-10-20T03:58:18.973Z,7
2022-10-20T03:59:25.737Z,7
2022-10-20T04:00:32.520Z,7
2022-10-20T04:03:50.693Z,7
2022-10-20T04:05:28.608Z,7
2022-10-20T04:06:35.001Z,6.9
2022-10-20T04:07:41.430Z,6.9
2022-10-20T04:08:47.818Z,6.9
2022-10-20T04:09:54.253Z,6.9
2022-10-20T04:11:00.701Z,6.9
2022-10-20T04:12:07.076Z,6.9
2022-10-20T04:13:13.496Z,6.9
2022-10-20T04:14:19.918Z,6.9
2022-10-20T04:15:26.337Z,6.9
2022-10-20T04:16:32.761Z,6.9
2022-10-20T04:17:39.181Z,7
2022-10-20T04:18:45.592Z,7
2022-10-20T04:19:52.007Z,7
2022-10-20T04:20:58.427Z,6.9
2022-10-20T04:22:04.841Z,7
2022-10-20T04:23:11.268Z,7
2022-10-20T04:24:17.673Z,7
2022-10-20T04:25:24.085Z,7
2022-10-20T04:26:30.498Z,7
2022-10-20T04:27:36.919Z,6.9
2022-10-20T04:28:43.334Z,6.9
2022-10-20T04:29:49.752Z,6.9
2022-10-20T04:30:56.176Z,6.9
2022-10-20T04:32:02.593Z,6.9
2022-10-20T04:33:09.161Z,6.9
2022-10-20T04:34:15.694Z,6.9
2022-10-20T04:35:22.226Z,6.9
2022-10-20T04:36:28.775Z,6.9
2022-10-20T04:37:35.308Z,6.9
2022-10-20T04:38:41.840Z,7
2022-10-20T04:39:48.375Z,7
2022-10-20T04:40:54.910Z,7.1
2022-10-20T04:42:01.451Z,7.1
2022-10-20T04:43:07.985Z,7
2022-10-20T04:44:14.546Z,7
2022-10-20T04:45:21.060Z,6.9
2022-10-20T04:46:27.600Z,6.9
2022-10-20T04:48:01.023Z,6.9
2022-10-20T04:49:07.748Z,6.8
2022-10-20T04:50:14.510Z,6.9
2022-10-20T04:51:21.284Z,6.9
2022-10-20T04:52:28.052Z,6.9
2022-10-20T04:53:34.832Z,6.8
2022-10-20T04:54:41.611Z,6.8
2022-10-20T04:55:48.382Z,6.7
2022-10-20T04:56:55.163Z,6.7
2022-10-20T04:58:01.934Z,6.7
2022-10-20T04:59:08.862Z,6.8
2022-10-20T05:00:15.479Z,6.7
2022-10-20T05:01:22.263Z,6.8
2022-10-20T05:04:40.436Z,6.8
2022-10-20T05:06:18.458Z,6.9
2022-10-20T05:07:25.013Z,6.9
2022-10-20T05:08:31.532Z,6.9
2022-10-20T05:09:38.082Z,6.9
2022-10-20T05:10:44.599Z,6.8
2022-10-20T05:11:51.142Z,6.8
2022-10-20T05:12:57.683Z,6.7
2022-10-20T05:14:04.233Z,6.7
2022-10-20T05:16:17.339Z,6.6
2022-10-20T05:17:23.836Z,6.6
2022-10-20T05:18:30.374Z,6.6
2022-10-20T05:19:36.912Z,6.5
2022-10-20T05:20:43.447Z,6.5
2022-10-20T05:21:49.987Z,6.5
2022-10-20T05:22:56.538Z,6.6
2022-10-20T05:24:03.075Z,6.6
2022-10-20T05:25:09.601Z,6.5
2022-10-20T05:26:16.239Z,6.6
2022-10-20T05:27:22.770Z,6.6
2022-10-20T05:28:29.221Z,6.6
2022-10-20T05:29:35.755Z,6.7
2022-10-20T05:30:42.396Z,6.6
2022-10-20T05:31:48.866Z,6.6
2022-10-20T05:32:55.490Z,6.7
2022-10-20T05:34:02.290Z,6.7
2022-10-20T05:35:08.926Z,6.8
2022-10-20T05:36:15.833Z,6.8
2022-10-20T05:37:22.470Z,6.8
2022-10-20T05:38:29.255Z,6.8
2022-10-20T05:39:36.021Z,6.9
2022-10-20T05:40:42.948Z,6.8
2022-10-20T05:41:49.666Z,6.8
2022-10-20T05:42:56.496Z,6.8
2022-10-20T05:44:03.271Z,6.8
2022-10-20T05:45:09.900Z,6.8
2022-10-20T05:46:16.845Z,6.8
2022-10-20T05:47:23.591Z,6.8
2022-10-20T05:50:41.778Z,6.8
2022-10-20T05:52:20.002Z,6.8
2022-10-20T05:53:26.650Z,6.7
2022-10-20T05:54:33.580Z,6.7
2022-10-20T05:55:40.349Z,6.7
2022-10-20T05:56:47.121Z,6.7
2022-10-20T05:57:53.896Z,6.7
2022-10-20T05:59:00.674Z,6.7
2022-10-20T06:00:07.443Z,6.7
2022-10-20T06:01:14.237Z,6.7
2022-10-20T06:02:20.988Z,6.7
2022-10-20T06:03:27.783Z,6.8
2022-10-20T06:04:34.569Z,6.9
2022-10-20T06:05:41.343Z,6.9
2022-10-20T06:06:48.100Z,7
2022-10-20T06:07:54.873Z,7
2022-10-20T06:09:01.501Z,7
2022-10-20T06:10:08.378Z,7.1
2022-10-20T06:11:15.044Z,7
2022-10-20T06:12:21.954Z,7
2022-10-20T06:13:28.748Z,7
2022-10-20T06:14:35.439Z,7.1
2022-10-20T06:15:42.265Z,7.1
2022-10-20T06:16:48.926Z,7.1
2022-10-20T06:17:55.859Z,7.2
2022-10-20T06:19:02.584Z,7.2
2022-10-20T06:21:14.861Z,7.3
2022-10-20T06:22:20.954Z,7.5
2022-10-20T06:23:27.465Z,7.5
2022-10-20T06:24:34.026Z,7.5
2022-10-20T06:25:40.585Z,7.5
2022-10-20T06:26:47.119Z,7.6
2022-10-20T06:27:53.672Z,7.6
2022-10-20T06:29:00.162Z,7.5
2022-10-20T06:30:06.713Z,7.6
2022-10-20T06:31:13.257Z,7.7
2022-10-20T06:32:19.824Z,7.6
2022-10-20T06:33:26.367Z,7.6
2022-10-20T06:34:32.913Z,7.7
2022-10-20T06:35:39.446Z,7.7
2022-10-20T06:36:45.843Z,7.7
2022-10-20T06:37:52.477Z,7.8
2022-10-20T06:38:59.071Z,7.8
2022-10-20T06:40:05.594Z,7.9
2022-10-20T06:41:12.157Z,7.9
2022-10-20T06:42:18.673Z,7.9
2022-10-20T06:43:25.105Z,8
2022-10-20T06:44:31.725Z,8
2022-10-20T06:45:38.273Z,8
2022-10-20T06:46:44.697Z,8
2022-10-20T06:47:51.303Z,8
2022-10-20T06:48:57.904Z,8
2022-10-20T06:50:04.633Z,8.1
2022-10-20T06:51:11.450Z,8.1
2022-10-20T06:52:18.207Z,8.2
2022-10-20T06:53:24.850Z,8.2
2022-10-20T06:54:31.611Z,8.2
2022-10-20T06:55:38.385Z,8.3
2022-10-20T06:56:45.334Z,8.3
2022-10-20T06:57:52.106Z,8.3
2022-10-20T06:58:58.866Z,8.3
2022-10-20T07:00:05.493Z,8.3
2022-10-20T07:01:12.368Z,8.4
2022-10-20T07:02:19.191Z,8.4
2022-10-20T07:03:25.966Z,8.5
2022-10-20T07:04:33.249Z,8.5
2022-10-20T07:06:11.281Z,8.5
2022-10-20T07:07:17.761Z,8.6
2022-10-20T07:08:24.337Z,8.6
2022-10-20T07:09:30.875Z,8.6
2022-10-20T07:10:37.406Z,8.6
2022-10-20T07:11:43.954Z,8.7
2022-10-20T07:12:50.433Z,8.7
2022-10-20T07:13:57.019Z,8.7
2022-10-20T07:15:03.545Z,8.7
2022-10-20T07:16:10.103Z,8.7
2022-10-20T07:17:16.487Z,8.7
2022-10-20T07:18:23.166Z,8.7
2022-10-20T07:19:29.718Z,8.7
2022-10-20T07:20:36.107Z,8.8
2022-10-20T07:21:42.790Z,8.9
2022-10-20T07:22:49.316Z,8.9
2022-10-20T07:23:55.762Z,8.9
2022-10-20T07:25:02.260Z,9
2022-10-20T07:26:08.879Z,9
2022-10-20T07:27:15.364Z,9
2022-10-20T07:28:21.988Z,9.1
2022-10-20T07:29:28.410Z,9.1
2022-10-20T07:30:35.048Z,9.2
2022-10-20T07:31:41.638Z,9.3
2022-10-20T07:32:48.045Z,9.3
2022-10-20T07:33:54.948Z,9.3
2022-10-20T07:35:01.587Z,9.4
2022-10-20T07:36:08.497Z,9.5
2022-10-20T07:37:15.257Z,9.5
2022-10-20T07:38:21.983Z,9.5
2022-10-20T07:39:28.805Z,9.4
2022-10-20T07:40:35.442Z,9.5
2022-10-20T07:41:42.321Z,9.6
2022-10-20T07:42:49.192Z,9.7
2022-10-20T07:43:55.916Z,9.7
2022-10-20T07:45:02.666Z,9.8
2022-10-20T07:46:09.400Z,9.9
2022-10-20T07:47:16.184Z,9.8
2022-10-20T07:50:34.401Z,9.8
2022-10-20T07:52:09.889Z,9.9
2022-10-20T07:53:17.013Z,9.9
2022-10-20T07:54:55.816Z,10
2022-10-20T07:56:34.494Z,10
2022-10-20T07:58:13.319Z,10.1
2022-10-20T07:59:52.080Z,10.2
2022-10-20T08:01:30.783Z,10.1
2022-10-20T08:03:09.390Z,10.2
2022-10-20T08:04:48.325Z,10.3
2022-10-20T08:06:26.862Z,10.4
2022-10-20T08:08:05.767Z,10.4
2022-10-20T08:09:13.003Z,10.4
2022-10-20T08:12:13.718Z,10.4
2022-10-20T08:15:29.327Z,10.6
2022-10-20T08:16:37.460Z,10.7
2022-10-20T08:17:42.200Z,10.7
2022-10-20T08:18:48.571Z,10.7
2022-10-20T08:20:03.687Z,10.8
2022-10-20T08:21:01.550Z,10.8
2022-10-20T08:22:07.913Z,10.8
2022-10-20T08:23:14.399Z,10.9
2022-10-20T08:24:20.816Z,11
2022-10-20T08:25:27.216Z,11
2022-10-20T08:26:33.665Z,11.1
2022-10-20T08:27:40.064Z,11.1
2022-10-20T08:28:46.572Z,11.2
2022-10-20T08:29:52.991Z,11.4
2022-10-20T08:30:59.439Z,11.4
2022-10-20T08:32:05.798Z,11.5
2022-10-20T08:33:12.274Z,11.6
2022-10-20T08:34:18.719Z,11.7
2022-10-20T08:35:25.110Z,11.8
2022-10-20T08:36:31.515Z,11.9
2022-10-20T08:37:37.998Z,11.9
2022-10-20T08:38:44.426Z,11.9
2022-10-20T08:39:50.927Z,11.9
2022-10-20T08:40:57.240Z,12
2022-10-20T08:42:03.664Z,12.1
2022-10-20T08:43:10.349Z,12.2
2022-10-20T08:44:16.828Z,12.2
2022-10-20T08:45:23.409Z,12.2
2022-10-20T08:46:29.929Z,12.1
2022-10-20T08:47:36.546Z,12
2022-10-20T08:48:43.054Z,12.1
2022-10-20T08:49:49.672Z,12.2
2022-10-20T08:50:56.147Z,12.3
2022-10-20T08:52:02.743Z,12.4
2022-10-20T08:53:09.217Z,12.5
2022-10-20T08:54:15.812Z,12.5
2022-10-20T08:55:22.317Z,12.6
2022-10-20T08:56:28.876Z,12.8
2022-10-20T08:57:35.759Z,12.9
2022-10-20T08:58:42.500Z,13.1
2022-10-20T08:59:49.254Z,13.1
2022-10-20T09:00:56.057Z,13.3
2022-10-20T09:02:02.831Z,13.3
2022-10-20T09:03:09.641Z,13.1
2022-10-20T09:04:16.451Z,13.2
2022-10-20T09:05:23.207Z,13.1
2022-10-20T09:06:30.023Z,13.2
2022-10-20T09:07:36.859Z,13.2
2022-10-20T09:08:43.602Z,13.2
2022-10-20T09:09:50.469Z,13.2
2022-10-20T09:10:57.209Z,13.3
2022-10-20T09:13:35.888Z,13.4
2022-10-20T09:15:14.484Z,13.4
2022-10-20T09:16:53.294Z,13.3
2022-10-20T09:18:31.959Z,13.3
2022-10-20T09:19:39.223Z,13.2
2022-10-20T09:20:46.549Z,13.1
2022-10-20T09:22:25.232Z,13.1
2022-10-20T09:24:03.995Z,13.3
2022-10-20T09:25:42.714Z,13.3
2022-10-20T09:27:21.450Z,13.3
2022-10-20T09:29:00.194Z,13.4
2022-10-20T09:30:38.922Z,13.6
2022-10-20T09:32:17.737Z,13.7
2022-10-20T09:36:07.261Z,13.8
2022-10-20T09:37:13.876Z,14.1
2022-10-20T09:38:20.409Z,14.1
2022-10-20T09:39:26.964Z,14.2
2022-10-20T09:40:33.549Z,14.3
2022-10-20T09:41:40.073Z,14.3
2022-10-20T09:42:46.651Z,14.3
2022-10-20T09:43:53.197Z,14.3
2022-10-20T09:44:59.741Z,14.4
2022-10-20T09:46:06.296Z,14.3
2022-10-20T09:47:12.852Z,14.3
2022-10-20T09:48:19.418Z,14.2
2022-10-20T09:49:25.985Z,14.2
2022-10-20T09:50:32.506Z,14.4
2022-10-20T09:51:39.062Z,14.5
2022-10-20T09:52:45.617Z,14.6
2022-10-20T09:53:52.184Z,14.7
2022-10-20T09:54:58.744Z,14.8
2022-10-20T09:56:05.387Z,14.9
2022-10-20T09:57:11.831Z,14.9
2022-10-20T09:58:18.378Z,14.9
2022-10-20T09:59:24.974Z,15
2022-10-20T10:00:31.500Z,15
2022-10-20T10:01:38.144Z,15.2
2022-10-20T10:02:44.718Z,15.2
2022-10-20T10:03:51.185Z,15.3
2022-10-20T10:04:57.931Z,15.5
2022-10-20T10:06:04.726Z,15.5
2022-10-20T10:07:11.499Z,15.5
2022-10-20T10:08:18.292Z,15.5
2022-10-20T10:09:25.075Z,15.7
2022-10-20T10:10:31.916Z,15.8
2022-10-20T10:11:38.726Z,15.9
2022-10-20T10:12:45.573Z,16
2022-10-20T10:13:52.379Z,16
2022-10-20T10:14:59.010Z,16
2022-10-20T10:16:05.960Z,15.6
2022-10-20T10:17:12.626Z,15.5
2022-10-20T10:18:19.455Z,15.4
2022-10-20T10:20:58.342Z,15.4
2022-10-20T10:22:37.196Z,15.5
2022-10-20T10:24:15.858Z,15.3
2022-10-20T10:25:54.623Z,15.3
2022-10-20T10:27:01.864Z,15.4
2022-10-20T10:28:09.156Z,15.5
2022-10-20T10:29:47.806Z,15.6
2022-10-20T10:31:26.568Z,15.7
2022-10-20T10:33:05.323Z,15.7
2022-10-20T10:34:44.069Z,15.7
2022-10-20T10:36:22.770Z,15.7
2022-10-20T10:38:01.602Z,15.7
2022-10-20T10:39:40.271Z,15.8
2022-10-20T10:43:29.792Z,15.8
2022-10-20T10:44:36.299Z,15.7
2022-10-20T10:45:42.738Z,15.8
2022-10-20T10:46:49.217Z,15.8
2022-10-20T10:47:55.644Z,15.7
2022-10-20T10:49:01.997Z,15.7
2022-10-20T10:50:08.435Z,15.8
2022-10-20T10:51:14.901Z,15.8
2022-10-20T10:52:21.326Z,15.9
2022-10-20T10:53:27.815Z,15.9
2022-10-20T10:54:34.178Z,15.8
2022-10-20T10:55:40.671Z,15.8
2022-10-20T10:56:47.036Z,15.8
2022-10-20T10:57:53.467Z,15.8
2022-10-20T10:58:59.906Z,15.9
2022-10-20T11:00:06.326Z,15.8
2022-10-20T11:01:12.767Z,15.8
2022-10-20T11:02:19.208Z,15.8
2022-10-20T11:03:25.628Z,15.9
2022-10-20T11:04:32.098Z,15.9
2022-10-20T11:05:38.489Z,15.9
2022-10-20T11:06:44.944Z,16
2022-10-20T11:07:51.366Z,16.1
2022-10-20T11:08:57.842Z,16.2
2022-10-20T11:10:04.254Z,16.4
2022-10-20T11:11:10.685Z,16.5
2022-10-20T11:12:17.249Z,16.5
2022-10-20T11:13:23.768Z,16.5
2022-10-20T11:14:30.306Z,16.6
2022-10-20T11:15:36.898Z,16.6
2022-10-20T11:16:43.420Z,16.6
2022-10-20T11:17:49.973Z,16.6
2022-10-20T11:18:56.521Z,16.6
2022-10-20T11:20:03.119Z,16.6
2022-10-20T11:21:09.642Z,16.6
2022-10-20T11:22:16.184Z,16.6
2022-10-20T11:23:22.721Z,16.7
2022-10-20T11:24:29.278Z,16.7
2022-10-20T11:25:35.841Z,16.7
2022-10-20T11:27:25.206Z,16.7
2022-10-20T11:28:31.983Z,16.7
2022-10-20T11:29:38.760Z,16.7
2022-10-20T11:30:45.502Z,16.8
2022-10-20T11:31:52.299Z,16.8
2022-10-20T11:32:59.083Z,16.8
2022-10-20T11:34:05.884Z,16.8
2022-10-20T11:35:12.758Z,16.9
2022-10-20T11:36:19.469Z,16.8
2022-10-20T11:37:26.261Z,16.9
2022-10-20T11:38:33.022Z,16.8
2022-10-20T11:39:39.809Z,16.7
2022-10-20T11:40:46.620Z,16.7
2022-10-20T11:44:04.756Z,16.5
2022-10-20T11:45:40.274Z,16.4
2022-10-20T11:46:47.513Z,16.4
2022-10-20T11:48:26.257Z,16.4
2022-10-20T11:50:04.972Z,16.3
2022-10-20T11:51:43.785Z,16.4
2022-10-20T11:53:22.483Z,16.3
2022-10-20T11:55:01.162Z,16.3
2022-10-20T11:56:39.905Z,16.3
2022-10-20T11:58:18.621Z,16.3
2022-10-20T11:59:57.413Z,16.3
2022-10-20T12:01:36.089Z,16.3
2022-10-20T12:02:43.349Z,16.4
2022-10-20T12:05:44.214Z,16.3
2022-10-20T12:08:59.832Z,16.3
2022-10-20T12:10:06.373Z,16.3
2022-10-20T12:11:12.921Z,16.3
2022-10-20T12:12:19.481Z,16.3
2022-10-20T12:13:26.035Z,16.2
2022-10-20T12:14:32.574Z,16.3
2022-10-20T12:15:39.118Z,16.3
2022-10-20T12:16:45.683Z,16.3
2022-10-20T12:17:52.261Z,16.3
2022-10-20T12:18:58.770Z,16.2
2022-10-20T12:20:05.331Z,16.2
2022-10-20T12:21:11.977Z,16.1
2022-10-20T12:22:18.540Z,16
2022-10-20T12:23:24.984Z,16
2022-10-20T12:24:31.528Z,15.9
2022-10-20T12:25:38.078Z,15.9
2022-10-20T12:26:44.624Z,15.8
2022-10-20T12:27:51.181Z,15.7
2022-10-20T12:28:57.733Z,15.7
2022-10-20T12:30:04.282Z,15.6
2022-10-20T12:31:10.868Z,15.5
2022-10-20T12:32:17.394Z,15.3
2022-10-20T12:33:23.951Z,15.3
2022-10-20T12:34:30.516Z,15.2
2022-10-20T12:35:37.042Z,15.1
2022-10-20T12:36:43.951Z,15.1
2022-10-20T12:37:50.622Z,15
2022-10-20T12:38:57.403Z,14.9
2022-10-20T12:40:04.196Z,14.9
2022-10-20T12:41:11.011Z,15
2022-10-20T12:42:17.869Z,15
2022-10-20T12:43:24.551Z,15
2022-10-20T12:44:31.345Z,15
2022-10-20T12:45:38.140Z,15
2022-10-20T12:46:44.902Z,15.1
2022-10-20T12:47:51.694Z,15.1
2022-10-20T12:48:58.488Z,15.1
2022-10-20T12:50:05.290Z,15.1
2022-10-20T12:51:12.609Z,15.1
2022-10-20T12:52:51.320Z,15.1
2022-10-20T12:54:30.136Z,15.1
2022-10-20T12:56:08.793Z,15.1
2022-10-20T12:57:47.541Z,15.1
2022-10-20T12:59:26.264Z,15.1
2022-10-20T13:01:05.026Z,15.1
2022-10-20T13:02:43.740Z,15.1
2022-10-20T13:04:22.489Z,15.1
2022-10-20T13:06:01.233Z,15.1
2022-10-20T13:07:39.941Z,15.1
2022-10-20T13:09:18.674Z,15.2
2022-10-20T13:10:57.418Z,15.2
2022-10-20T13:15:05.409Z,15.3
2022-10-20T13:16:12.235Z,15.2
2022-10-20T13:18:21.306Z,15.2
2022-10-20T13:19:28.095Z,15.2
2022-10-20T13:20:34.891Z,15.1
2022-10-20T13:21:41.703Z,15.2
2022-10-20T13:22:48.573Z,15.2
2022-10-20T13:23:55.253Z,15.2
2022-10-20T13:25:02.043Z,15.2
2022-10-20T13:26:08.867Z,15.2
2022-10-20T13:27:15.629Z,15.2
2022-10-20T13:28:22.407Z,15.2
2022-10-20T13:29:29.231Z,15.2
2022-10-20T13:30:35.987Z,15.1
2022-10-20T13:31:42.775Z,15.1
2022-10-20T13:32:49.566Z,15.1
2022-10-20T13:33:56.359Z,15.1
2022-10-20T13:35:03.156Z,15
2022-10-20T13:36:09.929Z,15
2022-10-20T13:37:16.721Z,15
2022-10-20T13:38:23.511Z,15
2022-10-20T13:39:30.358Z,15
2022-10-20T13:40:37.073Z,15
2022-10-20T13:41:43.893Z,15
2022-10-20T13:42:50.637Z,15
2022-10-20T13:43:57.428Z,14.9
2022-10-20T13:46:09.622Z,14.9
2022-10-20T13:47:48.354Z,14.8
2022-10-20T13:49:27.091Z,14.9
2022-10-20T13:51:04.636Z,14.8
2022-10-20T13:52:11.979Z,14.8
2022-10-20T13:53:50.638Z,14.7
2022-10-20T13:55:29.375Z,14.7
2022-10-20T13:57:08.112Z,14.7
2022-10-20T13:58:46.861Z,14.7
2022-10-20T14:00:25.587Z,14.7
2022-10-20T14:02:04.344Z,14.6
2022-10-20T14:03:43.061Z,14.7
2022-10-20T14:05:21.802Z,14.7
2022-10-20T14:07:32.653Z,14.6
2022-10-20T14:09:28.888Z,14.7
2022-10-20T14:11:15.726Z,14.7
2022-10-20T14:12:54.467Z,14.7
2022-10-20T14:14:33.206Z,14.7
2022-10-20T14:16:11.944Z,14.8
2022-10-20T14:17:50.673Z,14.8
2022-10-20T14:19:29.418Z,14.9
2022-10-20T14:21:08.165Z,14.9
2022-10-20T14:22:46.921Z,14.9
2022-10-20T14:24:25.614Z,14.9
2022-10-20T14:26:04.360Z,14.9
2022-10-20T14:27:43.080Z,15
2022-10-20T14:29:21.809Z,14.9
2022-10-20T14:31:00.535Z,15
2022-10-20T14:32:39.259Z,15
2022-10-20T14:34:17.981Z,15
2022-10-20T14:35:56.715Z,15.1
2022-10-20T14:37:35.454Z,15.1
2022-10-20T14:39:14.258Z,15.1
2022-10-20T14:40:25.717Z,15.2
2022-10-20T14:41:32.939Z,15.2
2022-10-20T14:43:11.684Z,15.2
2022-10-20T14:44:50.551Z,15.3
2022-10-20T14:46:29.296Z,15.4
2022-10-20T14:48:07.936Z,15.5
2022-10-20T14:52:15.987Z,15.6
2022-10-20T14:55:31.541Z,15.7
2022-10-20T14:56:38.117Z,15.6
2022-10-20T14:57:44.639Z,15.6
2022-10-20T14:58:51.193Z,15.6
2022-10-20T14:59:57.742Z,15.6
2022-10-20T15:01:04.288Z,15.6
2022-10-20T15:02:10.835Z,15.6
2022-10-20T15:03:17.393Z,15.5
2022-10-20T15:04:23.943Z,15.5
2022-10-20T15:05:30.492Z,15.5
2022-10-20T15:06:37.047Z,15.5
2022-10-20T15:07:43.612Z,15.5
2022-10-20T15:08:50.145Z,15.5
2022-10-20T15:09:56.699Z,15.4
2022-10-20T15:11:03.246Z,15.4
2022-10-20T15:12:09.797Z,15.4
2022-10-20T15:13:16.354Z,15.5
2022-10-20T15:14:22.900Z,15.5
2022-10-20T15:15:29.452Z,15.6
2022-10-20T15:16:36.004Z,15.6
2022-10-20T15:17:42.560Z,15.6
2022-10-20T15:18:49.110Z,15.6
2022-10-20T15:19:55.657Z,15.5
2022-10-20T15:21:02.208Z,15.5
2022-10-20T15:22:08.772Z,15.4
2022-10-20T15:23:15.551Z,15.5
2022-10-20T15:24:22.339Z,15.5
2022-10-20T15:25:29.125Z,15.5
2022-10-20T15:26:35.907Z,15.6
2022-10-20T15:27:42.705Z,15.5
2022-10-20T15:28:49.492Z,15.5
2022-10-20T15:29:56.291Z,15.6
2022-10-20T15:31:03.065Z,15.5
2022-10-20T15:32:09.848Z,15.5
2022-10-20T15:33:16.638Z,15.4
2022-10-20T15:34:23.432Z,15.4
2022-10-20T15:35:30.219Z,15.4
2022-10-20T15:36:37.011Z,15.4
2022-10-20T15:39:55.161Z,15.3
2022-10-20T15:41:33.899Z,15.3
2022-10-20T15:42:41.161Z,15.4
2022-10-20T15:43:48.426Z,15.3
2022-10-20T15:45:27.149Z,15.4
2022-10-20T15:47:05.901Z,15.4
2022-10-20T15:48:44.694Z,15.4
2022-10-20T15:50:23.391Z,15.4
2022-10-20T15:52:02.078Z,15.3
2022-10-20T15:53:40.810Z,15.2
2022-10-20T15:55:19.548Z,15.3
2022-10-20T15:56:58.277Z,15.2
2022-10-20T15:58:37.009Z,15.2
2022-10-20T16:00:16.881Z,15.2
2022-10-20T16:03:32.310Z,15.2
2022-10-20T16:04:38.738Z,15.1
2022-10-20T16:05:45.182Z,15.1
2022-10-20T16:06:51.614Z,15.1
2022-10-20T16:07:58.042Z,15.1
2022-10-20T16:09:04.472Z,15.1
2022-10-20T16:10:10.916Z,15
2022-10-20T16:11:17.335Z,15
2022-10-20T16:12:23.765Z,15
2022-10-20T16:13:30.189Z,15
2022-10-20T16:14:36.619Z,14.9
2022-10-20T16:15:43.056Z,14.8
2022-10-20T16:16:49.489Z,14.8
2022-10-20T16:17:55.981Z,14.8
2022-10-20T16:19:02.407Z,14.8
2022-10-20T16:20:08.788Z,14.7
2022-10-20T16:21:15.221Z,14.7
2022-10-20T16:22:21.668Z,14.7
2022-10-20T16:23:28.102Z,14.6
2022-10-20T16:24:34.537Z,14.6
2022-10-20T16:25:40.969Z,14.6
2022-10-20T16:26:47.400Z,14.6
2022-10-20T16:27:53.829Z,14.6
2022-10-20T16:29:00.267Z,14.6
2022-10-20T16:30:06.702Z,14.6
2022-10-20T16:31:13.270Z,14.6
2022-10-20T16:32:19.822Z,14.6
2022-10-20T16:33:26.394Z,14.6
2022-10-20T16:34:32.928Z,14.5
2022-10-20T16:35:39.481Z,14.5
2022-10-20T16:36:46.042Z,14.5
2022-10-20T16:37:52.590Z,14.5
2022-10-20T16:38:59.140Z,14.5
2022-10-20T16:40:05.688Z,14.5
2022-10-20T16:41:12.244Z,14.5
2022-10-20T16:42:18.791Z,14.4
2022-10-20T16:43:25.347Z,14.4
2022-10-20T16:44:31.923Z,14.4
2022-10-20T16:46:21.225Z,14.4
2022-10-20T16:47:28.008Z,14.4
2022-10-20T16:48:34.795Z,14.4
2022-10-20T16:49:41.589Z,14.4
2022-10-20T16:50:48.376Z,14.4
2022-10-20T16:51:55.169Z,14.4
2022-10-20T16:53:01.955Z,14.4
2022-10-20T16:54:08.747Z,14.3
2022-10-20T16:55:15.558Z,14.3
2022-10-20T16:56:22.372Z,14.3
2022-10-20T16:57:29.138Z,14.3
2022-10-20T16:58:35.913Z,14.3
2022-10-20T16:59:42.708Z,14.3
2022-10-20T17:03:00.803Z,14.3
2022-10-20T17:04:39.544Z,14.2
2022-10-20T17:05:46.805Z,14.2
2022-10-20T17:06:54.072Z,14.2
2022-10-20T17:08:32.805Z,14.2
2022-10-20T17:10:11.574Z,14.2